Low temp

Not for real navigation. The accuracy of this data is not assured See disclaimer for more information



ICAO NAME COUNTRY WIND Kt GUST Kt VIS m TEMP/DEW C BARO METAR
PAGK GULKANA AIRPORT AK United States 0 0 9999 -4/-5 30.04 PAGK 191353Z AUTO 00000KT 10SM CAVOK M04/M05 A3004 RMK AO2 SLP192 T10391050 TS $
SCRM 15 0 9999 -4/-4 29.83 SCRM 191400Z 27015KT 9999 BKN005 OVC010 M04/M04 Q1010
CYMA Mayo Airport Canada 2 0 32000 -3/-5 30.10 CYMA 191400Z VRB02KT 20SM SCT100 BKN230 M03/M05 A3010 RMK AC3CI2 SLP223
CXCK Carmacks CS, Y. T. Canada 0 0 9999 -3/-5 29.92 CXCK 191300Z AUTO 00000KT M03/M05 RMK AO1 SLP214 T10321053 58002
CZFA Faro Airport Canada 0 0 32767 -2/-5 30.04 CZFA 191400Z 00000KT 30SM FEW100 FEW200 SCT240 M02/M05 A3004 RMK AC1CI1CI2 CI TR SLP208

Show more